Time;durP1;ratioP1;P1;durP2;ratioP2;P2;SDS_P1;SDS_P2;PMS_P1;PMS_P2;Temp;Humidity;BMP_temperature;BMP_pressure;BME280_temperature;BME280_humidity;BME280_pressure;Samples;Min_cycle;Max_cycle;Signal;HPM_P1;HPM_P2
2021/04/08 00:00:22;;;;;;;13.90;5.47;;;;;;;2.06;89.82;96695.94;5060021;28;20540;-89
2021/04/08 00:02:48;;;;;;;8.40;4.70;;;;;;;2.15;90.21;96679.03;5059879;28;21009;-89
2021/04/08 00:05:15;;;;;;;8.70;5.20;;;;;;;1.98;91.81;96673.63;5060343;28;20489;-89
2021/04/08 00:07:42;;;;;;;9.03;5.37;;;;;;;1.99;92.60;96674.34;5059426;28;20492;-88
2021/04/08 00:10:11;;;;;;;6.80;4.70;;;;;;;1.97;93.08;96676.78;5059356;28;20480;-88
2021/04/08 00:12:37;;;;;;;6.30;5.00;;;;;;;1.90;92.72;96674.53;5058678;28;20520;-88
2021/04/08 00:15:05;;;;;;;12.63;5.50;;;;;;;1.80;94.06;96678.56;5061802;28;20981;-88
2021/04/08 00:17:31;;;;;;;6.20;4.90;;;;;;;1.78;94.12;96681.72;5080534;28;20450;-88
2021/04/08 00:19:57;;;;;;;8.30;5.83;;;;;;;1.77;95.42;96677.59;5080200;28;20490;-90
2021/04/08 00:22:23;;;;;;;10.67;4.33;;;;;;;1.78;95.30;96681.00;5080422;28;20503;-90
2021/04/08 00:24:50;;;;;;;6.07;4.50;;;;;;;1.84;95.33;96674.50;5075083;28;20426;-87
2021/04/08 00:27:17;;;;;;;6.37;4.97;;;;;;;1.76;94.99;96668.16;5066082;28;20496;-88
2021/04/08 00:29:43;;;;;;;8.80;6.17;;;;;;;1.79;94.48;96671.78;5061904;28;20527;-87
2021/04/08 00:32:09;;;;;;;3.90;3.43;;;;;;;1.76;94.63;96667.41;5065431;28;20450;-89
2021/04/08 00:34:35;;;;;;;10.67;5.17;;;;;;;1.75;94.74;96671.31;5080247;28;20468;-90
2021/04/08 00:37:01;;;;;;;7.17;4.90;;;;;;;1.71;95.58;96673.44;5073688;28;20458;-88
2021/04/08 00:39:27;;;;;;;10.03;5.00;;;;;;;1.76;95.34;96668.16;5071365;28;20450;-86
2021/04/08 00:41:54;;;;;;;10.90;5.37;;;;;;;1.74;95.83;96665.25;5075607;28;20498;-89
2021/04/08 00:44:20;;;;;;;9.00;5.60;;;;;;;1.67;96.52;96667.59;5058332;28;20418;-87
2021/04/08 00:46:46;;;;;;;9.90;6.27;;;;;;;1.66;96.52;96666.88;5058453;28;20481;-88
2021/04/08 00:49:12;;;;;;;8.97;5.33;;;;;;;1.72;96.46;96674.91;5058367;28;20449;-88
2021/04/08 00:51:39;;;;;;;10.00;5.97;;;;;;;1.76;96.03;96675.41;5058028;28;20454;-88
2021/04/08 00:54:05;;;;;;;15.40;5.77;;;;;;;1.65;96.03;96664.69;5058355;28;20446;-87
2021/04/08 00:56:32;;;;;;;10.33;5.53;;;;;;;1.70;96.27;96678.03;5057736;28;20511;-87
2021/04/08 00:58:58;;;;;;;7.40;5.30;;;;;;;1.60;96.27;96679.38;5057789;28;20576;-88
2021/04/08 01:01:26;;;;;;;9.10;5.40;;;;;;;1.54;96.80;96682.00;5057820;28;20450;-88
2021/04/08 01:03:52;;;;;;;12.60;6.30;;;;;;;1.52;96.16;96687.09;5057958;28;20453;-88
2021/04/08 01:06:18;;;;;;;8.00;5.10;;;;;;;1.61;96.15;96691.50;5057540;28;20517;-88
2021/04/08 01:08:44;;;;;;;9.50;6.03;;;;;;;1.68;96.43;96693.72;5057707;28;20437;-88
2021/04/08 01:11:10;;;;;;;7.80;5.57;;;;;;;1.75;95.53;96690.66;5057099;28;20545;-87
2021/04/08 01:13:38;;;;;;;17.40;5.30;;;;;;;1.73;95.26;96694.97;5057779;28;20460;-89
2021/04/08 01:16:08;;;;;;;10.40;5.90;;;;;;;1.77;95.63;96703.47;5057800;28;20537;-89
2021/04/08 01:18:45;;;;;;;8.53;5.77;;;;;;;1.74;94.95;96694.50;5058134;28;20437;-89
2021/04/08 01:21:16;;;;;;;8.93;5.80;;;;;;;1.83;94.49;96696.25;5057745;28;20468;-87
2021/04/08 01:24:25;;;;;;;8.57;5.57;;;;;;;1.71;94.65;96697.38;5057761;28;20850;-87
2021/04/08 01:27:27;;;;;;;10.83;5.63;;;;;;;1.84;94.76;96689.75;5078982;28;20556;-89
2021/04/08 01:30:23;;;;;;;8.77;5.57;;;;;;;1.76;94.26;96689.44;5078481;28;20470;-88
2021/04/08 01:32:54;;;;;;;13.40;7.40;;;;;;;1.72;94.73;96701.50;5057238;28;20843;-88
2021/04/08 01:35:25;;;;;;;15.40;7.50;;;;;;;1.67;94.51;96696.84;5057713;28;20525;-88
2021/04/08 01:37:57;;;;;;;12.03;7.50;;;;;;;1.70;94.48;96707.28;5057546;28;20492;-86
2021/04/08 01:40:25;;;;;;;10.20;6.90;;;;;;;1.69;94.86;96710.41;5057046;28;20899;-86
2021/04/08 01:42:55;;;;;;;8.37;5.87;;;;;;;1.72;94.71;96710.22;5056928;28;20477;-88
2021/04/08 01:45:22;;;;;;;9.00;6.17;;;;;;;1.75;94.33;96713.84;5056289;28;20435;-89
2021/04/08 01:47:50;;;;;;;8.23;5.13;;;;;;;1.85;94.61;96718.50;5057754;28;20560;-87
2021/04/08 01:50:19;;;;;;;8.60;6.50;;;;;;;1.91;93.58;96723.91;5057531;28;20811;-88
2021/04/08 01:52:47;;;;;;;8.50;6.00;;;;;;;1.86;93.49;96724.56;5057401;28;20899;-88
2021/04/08 01:55:14;;;;;;;11.77;6.60;;;;;;;1.91;93.00;96721.94;5057264;28;20453;-87
2021/04/08 01:57:43;;;;;;;14.53;6.50;;;;;;;1.90;90.71;96723.16;5056764;28;20513;-87
2021/04/08 02:00:12;;;;;;;7.63;6.20;;;;;;;1.87;90.85;96732.09;5057034;28;20442;-87
2021/04/08 02:02:40;;;;;;;8.00;5.77;;;;;;;1.89;90.99;96735.00;5057305;28;20478;-87
2021/04/08 02:05:11;;;;;;;11.93;6.10;;;;;;;1.99;89.77;96740.88;5057521;28;20810;-88
2021/04/08 02:07:40;;;;;;;11.40;5.10;;;;;;;2.07;89.59;96745.28;5058237;28;20433;-87
2021/04/08 02:10:08;;;;;;;4.80;3.93;;;;;;;2.08;88.20;96746.75;5057784;28;20452;-88
2021/04/08 02:12:37;;;;;;;7.27;3.90;;;;;;;2.17;87.18;96738.56;5056573;28;20538;-88
2021/04/08 02:15:05;;;;;;;11.23;4.67;;;;;;;2.13;85.62;96748.00;5056964;28;20454;-88
2021/04/08 02:17:34;;;;;;;9.60;4.43;;;;;;;2.19;86.17;96748.75;5056852;28;20940;-88
2021/04/08 02:20:01;;;;;;;5.10;3.60;;;;;;;2.23;86.08;96741.28;5056335;28;20453;-88
2021/04/08 02:22:27;;;;;;;7.50;3.50;;;;;;;2.07;86.32;96742.63;5056559;28;20482;-89
2021/04/08 02:24:55;;;;;;;5.80;4.20;;;;;;;2.04;86.41;96746.22;5057670;28;20514;-89
2021/04/08 02:27:21;;;;;;;5.33;3.90;;;;;;;1.92;87.52;96743.94;5056002;28;20493;-88
2021/04/08 02:29:50;;;;;;;5.83;4.00;;;;;;;2.03;87.39;96744.06;5056613;28;20541;-88
2021/04/08 02:32:17;;;;;;;5.50;3.97;;;;;;;1.91;88.01;96740.56;5056589;28;20462;-88
2021/04/08 02:34:43;;;;;;;6.57;4.27;;;;;;;1.88;88.38;96746.81;5056112;28;20446;-88
2021/04/08 02:37:09;;;;;;;7.13;4.00;;;;;;;1.87;88.20;96745.38;5056599;28;20521;-87
2021/04/08 02:39:35;;;;;;;11.00;4.87;;;;;;;1.98;87.83;96744.72;5056657;28;20953;-87
2021/04/08 02:42:03;;;;;;;6.80;4.40;;;;;;;2.01;87.68;96751.75;5056553;28;20466;-87
2021/04/08 02:44:29;;;;;;;8.50;3.50;;;;;;;1.96;87.63;96755.13;5056551;28;20653;-88
2021/04/08 02:46:55;;;;;;;6.60;3.60;;;;;;;1.86;88.11;96757.22;5056320;28;20493;-87
2021/04/08 02:49:21;;;;;;;6.33;3.60;;;;;;;1.89;88.23;96750.22;5055825;28;20442;-88
2021/04/08 02:51:52;;;;;;;6.13;3.83;;;;;;;1.98;87.54;96752.69;5056249;28;20466;-87
2021/04/08 02:54:25;;;;;;;5.03;3.90;;;;;;;1.90;87.10;96749.03;5056495;28;20418;-88
2021/04/08 02:56:54;;;;;;;9.97;3.67;;;;;;;1.88;87.01;96754.81;5058974;28;20925;-88
2021/04/08 02:59:26;;;;;;;7.03;3.80;;;;;;;1.90;87.37;96765.72;5060313;28;20472;-88
2021/04/08 03:01:56;;;;;;;7.07;3.70;;;;;;;1.94;86.88;96765.50;5060020;28;20468;-89
2021/04/08 03:04:23;;;;;;;7.37;4.13;;;;;;;1.91;86.38;96759.19;5060870;28;20438;-88
2021/04/08 03:06:51;;;;;;;6.60;3.83;;;;;;;1.98;86.37;96771.31;5059845;28;20486;-88
2021/04/08 03:09:20;;;;;;;4.63;3.50;;;;;;;2.01;86.14;96776.44;5059535;28;20491;-89
2021/04/08 03:11:50;;;;;;;3.50;2.33;;;;;;;2.11;85.85;96777.72;5061007;28;20520;-89
2021/04/08 03:14:18;;;;;;;4.20;3.00;;;;;;;2.07;85.36;96776.47;5060185;28;20830;-88
2021/04/08 03:16:49;;;;;;;6.33;3.30;;;;;;;2.12;85.40;96781.84;5060485;28;20519;-88
2021/04/08 03:19:22;;;;;;;6.83;3.67;;;;;;;2.13;85.00;96783.31;5060604;28;20438;-87
2021/04/08 03:21:49;;;;;;;4.93;3.07;;;;;;;2.17;84.82;96781.16;5060822;28;20446;-87
2021/04/08 03:24:16;;;;;;;6.90;3.40;;;;;;;2.17;84.40;96786.47;5060212;28;20472;-87
2021/04/08 03:26:44;;;;;;;5.70;3.23;;;;;;;2.21;83.80;96785.53;5061176;28;20539;-88
2021/04/08 03:29:11;;;;;;;4.23;2.90;;;;;;;2.20;84.07;96781.41;5061805;28;20541;-87
2021/04/08 03:31:41;;;;;;;7.33;3.20;;;;;;;2.22;84.28;96787.00;5061863;28;20469;-87
2021/04/08 03:34:08;;;;;;;6.30;2.90;;;;;;;2.19;83.85;96778.03;5065767;28;20453;-87
2021/04/08 03:36:35;;;;;;;5.00;2.60;;;;;;;2.09;84.79;96784.72;5059893;28;20460;-88
2021/04/08 03:39:02;;;;;;;5.87;3.40;;;;;;;2.10;84.38;96786.91;5061422;28;20451;-88
2021/04/08 03:41:28;;;;;;;5.00;3.13;;;;;;;2.12;84.49;96789.84;5060866;28;20458;-88
2021/04/08 03:43:55;;;;;;;7.07;2.83;;;;;;;2.19;84.33;96794.00;5062144;28;20529;-88
2021/04/08 03:46:21;;;;;;;3.53;2.53;;;;;;;2.20;84.37;96792.06;5071946;28;20473;-88
2021/04/08 03:48:51;;;;;;;4.20;2.63;;;;;;;2.13;85.00;96801.22;5062312;28;20572;-87
2021/04/08 03:51:24;;;;;;;6.03;2.73;;;;;;;2.06;84.96;96794.41;5059301;28;20463;-87
2021/04/08 03:53:51;;;;;;;5.03;2.60;;;;;;;1.99;85.52;96804.72;5058840;28;20431;-88
2021/04/08 03:56:20;;;;;;;5.77;2.80;;;;;;;1.99;86.23;96808.13;5060516;28;20450;-88
2021/04/08 03:58:47;;;;;;;4.03;3.23;;;;;;;2.22;85.64;96806.38;5061344;28;20466;-90
2021/04/08 04:01:14;;;;;;;4.70;3.03;;;;;;;2.16;85.55;96800.97;5059065;28;20497;-89
2021/04/08 04:03:42;;;;;;;4.63;3.40;;;;;;;2.20;85.22;96800.03;5059350;28;20492;-88
2021/04/08 04:06:10;;;;;;;4.90;3.30;;;;;;;2.20;85.49;96800.03;5059178;28;20523;-88
2021/04/08 04:08:37;;;;;;;7.20;3.53;;;;;;;2.05;86.31;96800.19;5058480;28;20538;-88
2021/04/08 04:11:04;;;;;;;7.90;3.20;;;;;;;2.04;86.93;96810.09;5059660;28;20458;-88
2021/04/08 04:13:31;;;;;;;8.33;4.00;;;;;;;1.97;87.46;96810.50;5060516;28;20534;-87
2021/04/08 04:15:57;;;;;;;7.33;3.47;;;;;;;2.08;87.14;96813.28;5059830;28;20507;-88
2021/04/08 04:18:24;;;;;;;7.73;3.30;;;;;;;1.96;87.36;96814.38;5059578;28;20442;-88
2021/04/08 04:20:50;;;;;;;9.50;3.70;;;;;;;2.00;87.49;96808.84;5059788;28;20480;-88
2021/04/08 04:23:21;;;;;;;6.77;4.07;;;;;;;1.94;88.05;96808.09;5059008;28;20434;-88
2021/04/08 04:25:48;;;;;;;6.30;3.00;;;;;;;1.92;88.53;96815.78;5058161;28;21024;-88
2021/04/08 04:28:14;;;;;;;7.73;3.47;;;;;;;1.89;88.24;96808.75;5059266;28;20484;-88
2021/04/08 04:30:40;;;;;;;5.70;3.53;;;;;;;1.80;88.95;96820.28;5059768;28;20496;-88
2021/04/08 04:33:06;;;;;;;6.47;3.20;;;;;;;1.81;88.80;96819.09;5058869;28;20446;-88
2021/04/08 04:35:32;;;;;;;5.40;3.63;;;;;;;1.92;88.79;96819.19;5058765;28;20433;-89
2021/04/08 04:37:58;;;;;;;9.13;4.03;;;;;;;2.02;88.19;96825.81;5059587;28;20541;-88
2021/04/08 04:40:26;;;;;;;6.20;3.83;;;;;;;1.92;88.04;96821.09;5060020;28;20539;-88
2021/04/08 04:42:52;;;;;;;6.83;4.00;;;;;;;1.90;88.09;96839.47;5059476;28;20453;-88
2021/04/08 04:45:18;;;;;;;5.73;4.27;;;;;;;1.90;88.05;96829.56;5058840;28;20950;-88
2021/04/08 04:47:45;;;;;;;7.70;3.73;;;;;;;1.95;88.64;96834.19;5059221;28;20489;-88
2021/04/08 04:50:13;;;;;;;5.23;3.90;;;;;;;1.90;88.87;96842.13;5059427;28;20439;-87
2021/04/08 04:52:40;;;;;;;6.63;3.53;;;;;;;1.83;88.74;96845.22;5059214;28;20480;-89
2021/04/08 04:55:08;;;;;;;8.47;4.00;;;;;;;1.76;89.02;96845.63;5059990;28;20531;-89
2021/04/08 04:57:34;;;;;;;8.30;4.33;;;;;;;1.79;88.89;96844.69;5058893;28;20508;-87
2021/04/08 05:00:01;;;;;;;8.80;3.87;;;;;;;1.83;88.99;96848.59;5060769;28;20549;-87
2021/04/08 05:02:27;;;;;;;4.03;3.10;;;;;;;1.84;87.98;96855.41;5060808;28;20466;-87
2021/04/08 05:04:53;;;;;;;5.57;3.40;;;;;;;1.94;88.26;96859.34;5060155;28;20485;-89
2021/04/08 05:07:19;;;;;;;5.87;3.87;;;;;;;1.97;87.85;96865.69;5058792;28;20576;-88
2021/04/08 05:09:45;;;;;;;8.20;3.80;;;;;;;2.02;87.53;96865.72;5059465;28;20492;-88
2021/04/08 05:12:12;;;;;;;6.07;3.63;;;;;;;2.03;86.92;96859.19;5059094;28;20518;-89
2021/04/08 05:14:38;;;;;;;6.43;3.83;;;;;;;2.05;86.93;96864.03;5059344;28;20504;-88
2021/04/08 05:17:06;;;;;;;5.50;3.17;;;;;;;2.07;86.62;96859.69;5060692;28;20446;-89
2021/04/08 05:19:32;;;;;;;4.53;3.37;;;;;;;2.24;86.70;96861.78;5058689;28;20852;-89
2021/04/08 05:21:58;;;;;;;8.50;4.10;;;;;;;2.21;85.18;96860.06;5058585;28;20467;-89
2021/04/08 05:24:24;;;;;;;6.37;4.07;;;;;;;2.31;84.15;96856.03;5061003;28;20549;-89
2021/04/08 05:26:50;;;;;;;4.60;4.10;;;;;;;2.27;82.80;96866.16;5058622;28;20512;-89
2021/04/08 05:29:16;;;;;;;7.30;4.90;;;;;;;2.19;81.57;96865.88;5057855;28;20456;-88
2021/04/08 05:31:43;;;;;;;7.47;4.50;;;;;;;2.20;81.91;96872.63;5058285;28;20985;-88
2021/04/08 05:34:09;;;;;;;7.03;4.87;;;;;;;2.33;80.97;96880.25;5058604;28;20446;-89
2021/04/08 05:36:35;;;;;;;10.70;5.20;;;;;;;2.39;81.28;96884.41;5059071;28;20805;-89
2021/04/08 05:39:03;;;;;;;7.43;4.40;;;;;;;2.46;79.89;96885.94;5058677;28;20446;-88
2021/04/08 05:41:29;;;;;;;7.37;5.03;;;;;;;2.44;79.74;96889.06;5058651;28;20490;-89
2021/04/08 05:43:55;;;;;;;8.63;5.23;;;;;;;2.52;79.82;96886.69;5058329;28;20449;-89
2021/04/08 05:46:21;;;;;;;6.07;4.00;;;;;;;2.53;79.61;96890.81;5058833;28;20976;-89
2021/04/08 05:48:47;;;;;;;6.63;4.03;;;;;;;2.61;78.44;96889.19;5057592;28;20572;-89
2021/04/08 05:51:14;;;;;;;5.47;3.13;;;;;;;2.69;77.85;96898.22;5058209;28;20458;-89
2021/04/08 05:53:40;;;;;;;8.03;4.00;;;;;;;2.72;78.42;96894.59;5058239;28;20446;-89
2021/04/08 05:56:06;;;;;;;5.83;4.07;;;;;;;2.70;78.11;96895.06;5059994;28;20977;-89
2021/04/08 05:58:32;;;;;;;7.00;3.90;;;;;;;2.74;77.87;96904.78;5060476;28;20451;-89
2021/04/08 06:00:59;;;;;;;9.00;4.13;;;;;;;2.77;77.04;96904.56;5057644;28;20461;-89
2021/04/08 06:03:25;;;;;;;6.57;3.70;;;;;;;2.76;77.90;96902.38;5058369;28;20441;-89
2021/04/08 06:05:51;;;;;;;9.10;4.27;;;;;;;2.87;77.83;96908.50;5057882;28;20442;-88
2021/04/08 06:08:18;;;;;;;10.50;4.40;;;;;;;2.90;77.13;96909.50;5059435;28;20453;-89
2021/04/08 06:10:44;;;;;;;8.50;4.60;;;;;;;2.93;78.04;96911.94;5057848;28;20504;-89
2021/04/08 06:13:10;;;;;;;13.60;4.20;;;;;;;3.08;77.31;96907.19;5058327;28;20443;-89
2021/04/08 06:15:37;;;;;;;5.07;3.87;;;;;;;3.07;76.42;96913.00;5058934;28;20462;-89
2021/04/08 06:18:03;;;;;;;7.17;3.57;;;;;;;3.12;76.37;96914.97;5057736;28;20452;-89
2021/04/08 06:20:29;;;;;;;6.50;3.90;;;;;;;3.19;76.41;96917.91;5057465;28;20558;-89
2021/04/08 06:22:56;;;;;;;4.33;3.60;;;;;;;3.20;76.37;96923.97;5060390;28;20572;-88
2021/04/08 06:25:23;;;;;;;6.67;4.13;;;;;;;3.34;76.24;96917.75;5059393;28;20465;-88
2021/04/08 06:27:50;;;;;;;6.83;3.43;;;;;;;3.60;74.45;96914.97;5060964;28;20474;-88
2021/04/08 06:30:17;;;;;;;5.13;3.67;;;;;;;4.03;73.04;96924.31;5060227;28;20462;-89
2021/04/08 06:32:43;;;;;;;10.80;4.30;;;;;;;4.32;72.48;96926.53;5064498;28;20472;-89
2021/04/08 06:35:10;;;;;;;5.50;3.80;;;;;;;4.51;70.46;96920.75;5076147;28;20454;-88
2021/04/08 06:37:37;;;;;;;15.27;4.10;;;;;;;4.53;70.33;96926.31;5081784;28;20426;-90
2021/04/08 06:40:03;;;;;;;8.33;3.73;;;;;;;4.63;69.31;96932.88;5081712;28;20457;-90
2021/04/08 06:42:33;;;;;;;6.60;4.30;;;;;;;4.67;69.51;96933.34;5081013;28;20438;-91
2021/04/08 06:45:00;;;;;;;6.10;4.13;;;;;;;4.71;69.12;96939.19;5080879;28;20461;-89
2021/04/08 06:47:31;;;;;;;6.93;4.33;;;;;;;4.93;67.19;96943.81;5081265;28;20512;-91
2021/04/08 06:50:03;;;;;;;10.47;5.00;;;;;;;4.90;66.12;96940.16;5079047;28;20404;-87
2021/04/08 06:52:30;;;;;;;12.00;4.40;;;;;;;4.54;67.63;96941.16;5063599;28;21066;-88
2021/04/08 06:54:56;;;;;;;6.50;4.67;;;;;;;4.49;68.61;96939.19;5071909;28;20448;-88
2021/04/08 06:57:24;;;;;;;6.27;4.33;;;;;;;4.58;68.56;96936.28;5072022;28;20438;-87
2021/04/08 06:59:51;;;;;;;12.20;5.17;;;;;;;4.53;67.63;96939.69;5066561;28;20987;-89
2021/04/08 07:02:19;;;;;;;10.47;6.00;;;;;;;4.46;67.42;96940.16;5063760;28;20557;-89
2021/04/08 07:04:46;;;;;;;12.70;5.50;;;;;;;4.58;67.34;96939.69;5062773;28;20430;-89
2021/04/08 07:07:14;;;;;;;12.20;6.23;;;;;;;4.59;67.55;96935.06;5062912;28;20532;-89
2021/04/08 07:09:40;;;;;;;11.00;6.10;;;;;;;4.82;66.13;96947.22;5063094;28;20584;-89
2021/04/08 07:12:08;;;;;;;9.63;6.90;;;;;;;4.83;64.28;96943.31;5064648;28;20450;-89
2021/04/08 07:14:34;;;;;;;10.03;6.27;;;;;;;5.02;63.46;96944.28;5065505;28;20532;-89
2021/04/08 07:17:01;;;;;;;9.33;6.13;;;;;;;5.03;62.27;96956.44;5062848;28;20530;-89
2021/04/08 07:19:29;;;;;;;12.70;6.30;;;;;;;4.81;63.03;96962.53;5062426;28;20528;-89
2021/04/08 07:21:59;;;;;;;9.17;6.33;;;;;;;4.66;64.00;96956.69;5061666;28;20470;-89
2021/04/08 07:24:26;;;;;;;21.90;6.50;;;;;;;4.73;63.31;96955.50;5061913;28;20414;-89
2021/04/08 07:27:00;;;;;;;10.83;6.40;;;;;;;4.66;63.89;96967.38;5063298;28;20585;-88
2021/04/08 07:29:51;;;;;;;14.33;6.87;;;;;;;4.92;64.60;96961.06;5062571;28;20914;-89
2021/04/08 07:32:23;;;;;;;14.30;6.70;;;;;;;5.14;63.55;96966.38;5063158;28;20471;-88
2021/04/08 07:34:50;;;;;;;7.37;5.67;;;;;;;5.40;62.78;96972.91;5062026;28;20948;-88
2021/04/08 07:37:22;;;;;;;12.20;5.17;;;;;;;5.60;61.70;96966.56;5062528;28;20576;-90
2021/04/08 07:39:49;;;;;;;10.27;5.60;;;;;;;5.54;61.47;96965.84;5062643;28;20433;-89
2021/04/08 07:42:16;;;;;;;7.37;5.77;;;;;;;5.67;61.94;96970.66;5060976;28;20526;-89
2021/04/08 07:44:44;;;;;;;8.80;6.13;;;;;;;6.13;59.33;96976.09;5062230;28;20450;-88
2021/04/08 07:47:28;;;;;;;27.57;6.70;;;;;;;6.53;59.90;96988.06;5062635;28;20528;-89
2021/04/08 07:49:58;;;;;;;19.97;6.07;;;;;;;6.98;58.35;96978.47;5063542;28;20867;-88
2021/04/08 07:52:27;;;;;;;7.27;5.30;;;;;;;6.94;57.80;96983.38;5078789;28;20454;-88
2021/04/08 07:55:05;;;;;;;16.40;6.40;;;;;;;6.80;58.18;96981.03;5071817;28;20522;-88
2021/04/08 07:57:33;;;;;;;18.73;5.70;;;;;;;6.68;58.05;96983.09;5062800;28;20814;-90
2021/04/08 08:00:17;;;;;;;19.77;6.57;;;;;;;6.92;59.24;96985.81;5063079;28;20887;-90
2021/04/08 08:02:45;;;;;;;20.50;6.03;;;;;;;7.30;56.55;96992.09;5062692;28;20881;-88
2021/04/08 08:05:21;;;;;;;7.57;5.60;;;;;;;7.35;56.63;96993.28;5063688;28;20452;-88
2021/04/08 08:07:48;;;;;;;10.43;6.60;;;;;;;7.38;56.30;96995.69;5061912;28;20449;-88
2021/04/08 08:10:20;;;;;;;10.60;5.90;;;;;;;7.37;56.64;96996.19;5062661;28;20813;-89
2021/04/08 08:12:46;;;;;;;12.33;7.17;;;;;;;7.99;54.31;96999.66;5062774;28;20557;-89
2021/04/08 08:15:24;;;;;;;10.03;4.67;;;;;;;8.11;53.75;96997.59;5062556;28;20815;-89
2021/04/08 08:17:52;;;;;;;4.40;4.00;;;;;;;7.98;52.32;96990.19;5061959;28;20401;-89
2021/04/08 08:20:19;;;;;;;10.97;4.77;;;;;;;8.36;51.84;96994.38;5062692;28;20462;-88
2021/04/08 08:22:46;;;;;;;13.23;5.03;;;;;;;8.26;52.02;96992.50;5062498;28;20444;-89
2021/04/08 08:25:14;;;;;;;27.93;7.03;;;;;;;7.79;53.73;96995.50;5063096;28;20474;-89
2021/04/08 08:27:43;;;;;;;14.43;5.50;;;;;;;7.31;51.84;96995.50;5062344;28;20440;-89
2021/04/08 08:30:12;;;;;;;10.80;5.40;;;;;;;7.46;51.99;96993.16;5062215;28;20413;-89
2021/04/08 08:32:38;;;;;;;8.47;5.17;;;;;;;7.60;51.73;96997.44;5061280;28;20507;-89
2021/04/08 08:35:07;;;;;;;31.77;6.77;;;;;;;7.73;50.56;96999.50;5062355;28;20472;-89
2021/04/08 08:37:34;;;;;;;8.77;4.67;;;;;;;7.69;50.98;96999.03;5061614;28;20561;-90
2021/04/08 08:40:01;;;;;;;8.47;3.90;;;;;;;7.37;51.79;96996.19;5067620;28;20408;-91
2021/04/08 08:42:27;;;;;;;10.63;4.60;;;;;;;7.12;53.40;96992.00;5061117;28;20429;-90
2021/04/08 08:44:54;;;;;;;11.67;4.90;;;;;;;7.19;54.32;96999.53;5060568;28;20896;-90
2021/04/08 08:47:24;;;;;;;7.50;4.57;;;;;;;7.20;54.32;97004.41;5061354;28;20998;-91
2021/04/08 08:49:52;;;;;;;8.30;5.23;;;;;;;7.12;52.25;97002.75;5060647;28;20852;-90
2021/04/08 08:52:22;;;;;;;15.03;5.70;;;;;;;6.99;52.21;96998.69;5061355;28;20449;-89
2021/04/08 08:54:49;;;;;;;12.87;5.07;;;;;;;7.05;51.49;97006.00;5064420;28;20492;-88
2021/04/08 08:57:17;;;;;;;7.90;4.60;;;;;;;7.15;50.72;97007.84;5060861;28;20487;-89
2021/04/08 08:59:44;;;;;;;10.73;4.90;;;;;;;6.96;51.11;97005.06;5061700;28;20457;-88
2021/04/08 09:02:12;;;;;;;13.10;5.10;;;;;;;7.22;51.85;97001.94;5062048;28;20443;-89
2021/04/08 09:04:38;;;;;;;10.83;4.67;;;;;;;7.19;51.57;97002.94;5062004;28;20902;-88
2021/04/08 09:07:08;;;;;;;5.53;4.30;;;;;;;7.06;50.65;96997.44;5075295;28;20478;-88
2021/04/08 09:09:38;;;;;;;12.10;4.80;;;;;;;7.09;50.09;96993.75;5073560;28;20921;-88
2021/04/08 09:12:09;;;;;;;8.60;4.90;;;;;;;7.32;50.29;97005.03;5065279;28;20466;-90
2021/04/08 09:14:36;;;;;;;12.10;5.40;;;;;;;7.53;49.51;96996.03;5061406;28;20459;-88
2021/04/08 09:17:02;;;;;;;8.87;5.30;;;;;;;7.73;48.72;96983.38;5061752;28;20973;-89
2021/04/08 09:19:30;;;;;;;22.73;4.87;;;;;;;7.57;47.72;96997.72;5062797;28;20466;-89
2021/04/08 09:22:00;;;;;;;13.53;4.80;;;;;;;6.98;49.42;96986.50;5061127;28;20494;-89
2021/04/08 09:24:38;;;;;;;12.63;5.03;;;;;;;7.20;49.45;96988.28;5060583;28;20802;-87
2021/04/08 09:27:07;;;;;;;5.90;4.07;;;;;;;7.36;48.69;96990.06;5060812;28;20514;-89
2021/04/08 09:29:54;;;;;;;8.77;3.97;;;;;;;7.24;48.71;96991.41;5063129;28;20533;-89
2021/04/08 09:32:22;;;;;;;10.77;3.97;;;;;;;7.02;48.23;96988.22;5061199;28;20865;-88
2021/04/08 09:35:18;;;;;;;7.87;4.60;;;;;;;6.67;49.59;96997.72;5059487;28;20446;-89
2021/04/08 09:38:20;;;;;;;10.77;4.80;;;;;;;6.34;50.05;96992.56;5060217;28;20422;-89
2021/04/08 09:41:03;;;;;;;8.80;4.17;;;;;;;6.42;50.91;96993.50;5059357;28;20412;-90
2021/04/08 09:43:31;;;;;;;11.07;3.80;;;;;;;6.43;50.88;96993.00;5058822;28;20566;-89
2021/04/08 09:46:04;;;;;;;11.20;4.10;;;;;;;6.55;51.30;96995.63;5073857;28;20450;-88
2021/04/08 09:48:45;;;;;;;13.40;4.30;;;;;;;6.58;50.78;96994.63;5078551;28;20417;-86
2021/04/08 09:51:25;;;;;;;6.67;4.00;;;;;;;6.43;51.21;96979.59;5077949;28;20454;-90
2021/04/08 09:54:03;;;;;;;7.00;3.83;;;;;;;6.45;51.69;96987.84;5077718;28;20443;-87
2021/04/08 09:57:03;;;;;;;5.53;3.80;;;;;;;6.75;50.68;96984.50;5064336;28;20423;-88
2021/04/08 09:59:29;;;;;;;7.63;4.13;;;;;;;6.78;50.46;96978.88;5062661;28;20563;-89
2021/04/08 10:01:56;;;;;;;12.03;4.30;;;;;;;6.77;50.66;96980.09;5059676;28;20882;-89
2021/04/08 10:04:24;;;;;;;13.17;4.90;;;;;;;6.68;50.98;96980.41;5060469;28;20505;-88
2021/04/08 10:07:01;;;;;;;6.93;3.80;;;;;;;6.81;51.19;96985.19;5059114;28;20923;-88
2021/04/08 10:09:27;;;;;;;6.20;4.10;;;;;;;6.87;51.16;96975.13;5059886;28;20958;-90
2021/04/08 10:11:54;;;;;;;6.07;3.57;;;;;;;6.91;50.32;96981.69;5059664;28;20491;-90
2021/04/08 10:14:25;;;;;;;14.00;4.03;;;;;;;7.08;49.50;96986.22;5059609;28;20412;-90
2021/04/08 10:17:04;;;;;;;12.40;4.70;;;;;;;7.09;50.54;96982.28;5061333;28;20517;-89
2021/04/08 10:19:35;;;;;;;12.70;4.33;;;;;;;7.03;50.66;96987.69;5059837;28;20423;-89
2021/04/08 10:22:02;;;;;;;4.53;3.30;;;;;;;7.08;49.18;96986.22;5060814;28;20500;-89
2021/04/08 10:24:34;;;;;;;10.87;4.57;;;;;;;7.17;49.53;96986.63;5060218;28;20534;-89
2021/04/08 10:27:00;;;;;;;9.50;3.70;;;;;;;7.16;50.63;96987.84;5059794;28;20478;-89
2021/04/08 10:29:34;;;;;;;4.90;3.90;;;;;;;7.39;50.19;96985.69;5059152;28;20841;-89
2021/04/08 10:32:01;;;;;;;12.20;4.13;;;;;;;7.23;50.40;96981.94;5059481;28;20612;-89
2021/04/08 10:34:34;;;;;;;9.30;4.73;;;;;;;7.30;50.54;96986.72;5058742;28;20450;-88
2021/04/08 10:37:00;;;;;;;8.60;3.87;;;;;;;7.33;50.07;96988.41;5059581;28;20405;-88
2021/04/08 10:39:28;;;;;;;4.30;3.73;;;;;;;7.22;49.80;96979.72;5061182;28;20450;-88
2021/04/08 10:42:00;;;;;;;4.93;3.83;;;;;;;7.48;49.83;96978.03;5059188;28;20550;-89
2021/04/08 10:44:28;;;;;;;16.23;4.40;;;;;;;7.71;50.05;96975.81;5061239;28;20431;-88
2021/04/08 10:46:56;;;;;;;7.73;3.73;;;;;;;7.79;49.44;96971.34;5062644;28;20471;-88
2021/04/08 10:49:25;;;;;;;6.23;3.67;;;;;;;8.05;48.17;96963.44;5062553;28;20843;-88
2021/04/08 10:51:52;;;;;;;8.90;3.43;;;;;;;8.21;48.14;96963.72;5061120;28;20449;-89
2021/04/08 10:54:19;;;;;;;8.17;3.43;;;;;;;8.01;47.78;96960.34;5061947;28;20473;-89
2021/04/08 10:56:49;;;;;;;10.37;3.90;;;;;;;8.21;46.98;96969.09;5062092;28;20830;-89
2021/04/08 10:59:19;;;;;;;11.10;4.10;;;;;;;8.45;46.17;96967.09;5061046;28;20941;-89
2021/04/08 11:01:46;;;;;;;9.70;4.10;;;;;;;8.74;45.07;96957.38;5059308;28;20445;-87
2021/04/08 11:04:13;;;;;;;9.60;3.67;;;;;;;8.75;44.31;96968.88;5059448;28;20484;-89
2021/04/08 11:06:40;;;;;;;9.47;3.70;;;;;;;8.66;44.77;96969.97;5061984;28;20482;-89
2021/04/08 11:09:06;;;;;;;9.07;4.17;;;;;;;8.65;44.05;96970.47;5061388;28;20474;-90
2021/04/08 11:11:32;;;;;;;7.87;3.73;;;;;;;8.62;44.60;96972.22;5061831;28;20483;-90
2021/04/08 11:13:59;;;;;;;4.10;3.03;;;;;;;8.51;44.10;96965.06;5060647;28;20471;-89
2021/04/08 11:16:27;;;;;;;7.00;3.97;;;;;;;8.34;44.91;96972.63;5059328;28;20787;-88
2021/04/08 11:18:54;;;;;;;8.47;4.70;;;;;;;8.16;45.19;96967.97;5062233;28;20455;-87
2021/04/08 11:21:21;;;;;;;9.57;4.43;;;;;;;7.51;46.09;96955.53;5062332;28;20834;-88
2021/04/08 11:23:47;;;;;;;9.70;3.83;;;;;;;7.84;45.68;96957.09;5063698;28;20421;-89
2021/04/08 11:26:13;;;;;;;7.33;4.27;;;;;;;7.91;45.27;96958.50;5062962;28;20452;-89
2021/04/08 11:28:41;;;;;;;9.90;3.93;;;;;;;8.05;43.25;96963.44;5061707;28;20521;-88
2021/04/08 11:31:12;;;;;;;9.63;4.10;;;;;;;8.05;44.46;96951.97;5062751;28;20472;-89
2021/04/08 11:33:38;;;;;;;7.60;3.43;;;;;;;8.05;44.59;96957.34;5063000;28;20642;-88
2021/04/08 11:36:15;;;;;;;9.50;3.67;;;;;;;8.13;44.63;96960.91;5063098;28;20477;-89
2021/04/08 11:38:42;;;;;;;9.17;3.77;;;;;;;8.32;43.67;96961.66;5062420;28;20477;-89
2021/04/08 11:41:09;;;;;;;4.53;3.63;;;;;;;8.16;43.64;96953.78;5064646;28;20557;-89
2021/04/08 11:43:44;;;;;;;6.50;3.87;;;;;;;8.45;43.27;96948.28;5064703;28;20466;-89
2021/04/08 11:46:24;;;;;;;11.73;4.20;;;;;;;8.36;43.15;96954.03;5065361;28;20430;-89